KMEV/MEV METAR and TAF weather

Enter ICAO airport designator
Station Type Date Time Source
KMEV METAR 2023/09/28 01:55 UTC NOAA

KMEV 280155Z AUTO 31009KT 10SM CLR 20/01 A3002 RMK AO2


Station Type Date Time Source
KMEV Decoded METAR 2023/09/28 01:55 UTC NOAA

Station name not available
Sep 27, 2023 - 09:55 PM EDT / 2023.09.28 0155 UTC
Wind: from the NW (310 degrees) at 10 MPH (9 KT):0
Visibility: 10 mile(s):0
Sky conditions: clear
Temperature: 68 F (20 C)
Dew Point: 33 F (1 C)
Relative Humidity: 28%
Pressure (altimeter): 30.02 in. Hg (1016 hPa)
ob: KMEV 280155Z AUTO 31009KT 10SM CLR 20/01 A3002 RMK AO2
cycle: 2

Station Type Date Time Source
KMEV TAF 2023/09/27 18:21 UTC NOAA

TAF KMEV 271720Z 2718/2818 10004KT P6SM SKC
FM272000 28011KT P6SM FEW150 SCT250
FM280400 11004KT P6SM SKC

Example: see airport list